createdAt,value
2023-03-02T00:01:50.966Z,101356.31
2023-03-02T00:04:21.882Z,101353.66
2023-03-02T00:06:49.166Z,101353.66
2023-03-02T00:09:15.948Z,101349.16
2023-03-02T00:11:42.596Z,101352.53
2023-03-02T00:14:09.135Z,101359.41
2023-03-02T00:16:35.719Z,101363.88
2023-03-02T00:19:02.364Z,101352.41
2023-03-02T00:21:29.109Z,101357.09
2023-03-02T00:23:55.682Z,101349.25
2023-03-02T00:26:22.252Z,101354.59
2023-03-02T00:28:48.915Z,101357.44
2023-03-02T00:31:15.628Z,101352.97
2023-03-02T00:33:42.342Z,101363.53
2023-03-02T00:36:19.183Z,101354.84
2023-03-02T00:38:45.766Z,101359.91
2023-03-02T00:41:13.959Z,101359.66
2023-03-02T00:43:40.578Z,101362.25
2023-03-02T00:46:17.723Z,101360.69
2023-03-02T00:48:44.464Z,101350.78
2023-03-02T00:51:11.660Z,101352.53
2023-03-02T00:53:38.453Z,101350.63
2023-03-02T00:56:05.954Z,101342.72
2023-03-02T00:58:32.845Z,101336.34
2023-03-02T01:01:04.171Z,101343.41
2023-03-02T01:03:30.817Z,101330.22
2023-03-02T01:05:58.579Z,101319.56
2023-03-02T01:08:25.323Z,101317.09
2023-03-02T01:10:54.331Z,101313.66
2023-03-02T01:13:21.114Z,101305.72
2023-03-02T01:15:47.613Z,101298.94
2023-03-02T01:18:14.393Z,101296.53
2023-03-02T01:20:40.973Z,101298.47
2023-03-02T01:23:07.439Z,101288.69
2023-03-02T01:25:33.992Z,101291.44
2023-03-02T01:28:00.470Z,101282.69
2023-03-02T01:30:27.070Z,101291.78
2023-03-02T01:32:53.585Z,101284.91
2023-03-02T01:35:20.172Z,101287.66
2023-03-02T01:37:46.775Z,101280.44
2023-03-02T01:40:14.412Z,101279.41
2023-03-02T01:42:47.644Z,101283.81
2023-03-02T01:45:59.545Z,101273.13
2023-03-02T01:48:30.145Z,101278.38
2023-03-02T01:50:57.605Z,101259.63
2023-03-02T01:53:26.372Z,101253.44
2023-03-02T01:55:53.377Z,101266.84
2023-03-02T01:58:20.754Z,101242.09
2023-03-02T02:00:47.751Z,101243.91
2023-03-02T02:03:21.237Z,101242.00
2023-03-02T02:06:04.363Z,101235.75
2023-03-02T02:08:31.221Z,101232.03
2023-03-02T02:10:58.740Z,101235.31
2023-03-02T02:13:25.379Z,101228.28
2023-03-02T02:15:52.137Z,101220.28
2023-03-02T02:18:18.712Z,101223.72
2023-03-02T02:20:54.915Z,101224.63
2023-03-02T02:23:34.410Z,101217.53
2023-03-02T02:26:13.585Z,101228.84
2023-03-02T02:28:57.662Z,101219.16
2023-03-02T02:32:01.678Z,101212.09
2023-03-02T02:34:54.534Z,101218.28
2023-03-02T02:37:32.312Z,101228.06
2023-03-02T02:39:59.703Z,101221.03
2023-03-02T02:42:38.398Z,101220.28
2023-03-02T02:45:07.638Z,101226.47
2023-03-02T02:47:34.427Z,101224.56
2023-03-02T02:50:01.153Z,101218.94
2023-03-02T02:52:28.977Z,101216.22
2023-03-02T02:54:57.271Z,101218.88
2023-03-02T02:57:26.623Z,101209.06
2023-03-02T02:59:56.495Z,101206.59
2023-03-02T03:02:25.842Z,101214.66
2023-03-02T03:05:03.749Z,101214.59
2023-03-02T03:07:33.096Z,101219.72
2023-03-02T03:10:01.888Z,101214.38
2023-03-02T03:12:29.311Z,101212.50
2023-03-02T03:14:55.857Z,101209.75
2023-03-02T03:17:22.486Z,101218.50
2023-03-02T03:19:49.046Z,101221.09
2023-03-02T03:22:16.864Z,101224.63
2023-03-02T03:24:45.079Z,101221.88
2023-03-02T03:27:14.434Z,101222.81
2023-03-02T03:29:48.186Z,101228.81
2023-03-02T03:32:14.875Z,101235.00
2023-03-02T03:34:42.208Z,101230.63
2023-03-02T03:37:11.429Z,101237.75
2023-03-02T03:39:38.115Z,101238.78
2023-03-02T03:42:05.151Z,101240.69
2023-03-02T03:44:31.830Z,101245.25
2023-03-02T03:46:58.774Z,101242.59
2023-03-02T03:49:27.638Z,101252.50
2023-03-02T03:51:54.325Z,101248.13
2023-03-02T03:54:21.176Z,101250.88
2023-03-02T03:56:49.564Z,101258.94
2023-03-02T03:59:22.688Z,101260.69
2023-03-02T04:01:52.049Z,101258.94
2023-03-02T04:04:24.719Z,101268.75
2023-03-02T04:06:52.044Z,101266.19
2023-03-02T04:09:18.589Z,101281.31
2023-03-02T04:11:47.222Z,101285.03
2023-03-02T04:14:14.225Z,101288.53
2023-03-02T04:16:41.754Z,101279.63
2023-03-02T04:19:09.846Z,101271.50
2023-03-02T04:21:41.552Z,101277.81
2023-03-02T04:24:09.665Z,101275.22
2023-03-02T04:26:37.382Z,101274.28
2023-03-02T04:29:04.514Z,101278.72
2023-03-02T04:31:34.202Z,101270.66
2023-03-02T04:34:04.262Z,101271.50
2023-03-02T04:36:32.917Z,101275.13
2023-03-02T04:38:59.779Z,101279.50
2023-03-02T04:41:26.424Z,101275.81
2023-03-02T04:43:53.025Z,101279.44
2023-03-02T04:46:23.796Z,101273.25
2023-03-02T04:48:50.821Z,101270.56
2023-03-02T04:51:24.178Z,101276.00
2023-03-02T04:53:52.338Z,101276.94
2023-03-02T04:56:18.954Z,101276.19
2023-03-02T04:58:45.471Z,101278.13
2023-03-02T05:01:13.081Z,101275.47
2023-03-02T05:03:39.631Z,101293.25
2023-03-02T05:06:06.461Z,101296.63
2023-03-02T05:08:33.070Z,101290.34
2023-03-02T05:10:59.969Z,101301.78
2023-03-02T05:13:26.913Z,101293.81
2023-03-02T05:15:53.768Z,101298.34
2023-03-02T05:18:20.539Z,101296.47
2023-03-02T05:20:47.121Z,101291.97
2023-03-02T05:23:25.533Z,101295.69
2023-03-02T05:25:54.420Z,101299.22
2023-03-02T05:28:22.673Z,101294.72
2023-03-02T05:30:49.889Z,101294.66
2023-03-02T05:33:16.993Z,101281.25
2023-03-02T05:35:44.201Z,101293.72
2023-03-02T05:38:11.736Z,101292.84
2023-03-02T05:40:39.881Z,101290.28
2023-03-02T05:43:07.001Z,101292.06
2023-03-02T05:45:38.571Z,101288.53
2023-03-02T05:48:05.867Z,101296.63
2023-03-02T05:50:33.196Z,101294.97
2023-03-02T05:53:02.434Z,101296.00
2023-03-02T05:55:29.296Z,101300.66
2023-03-02T05:57:56.112Z,101301.50
2023-03-02T06:00:22.976Z,101310.53
2023-03-02T06:02:49.542Z,101307.03
2023-03-02T06:05:18.297Z,101306.94
2023-03-02T06:07:45.417Z,101311.22
2023-03-02T06:10:13.162Z,101313.63
2023-03-02T06:12:40.068Z,101306.44
2023-03-02T06:15:07.842Z,101308.94
2023-03-02T06:17:34.682Z,101313.94
2023-03-02T06:20:01.360Z,101320.63
2023-03-02T06:22:28.003Z,101310.44
2023-03-02T06:24:55.490Z,101320.75
2023-03-02T06:27:22.016Z,101317.81
2023-03-02T06:29:49.076Z,101330.88
2023-03-02T06:32:15.714Z,101322.72
2023-03-02T06:34:42.513Z,101332.34
2023-03-02T06:37:09.113Z,101332.25
2023-03-02T06:39:35.604Z,101329.41
2023-03-02T06:42:02.135Z,101330.09
2023-03-02T06:44:28.792Z,101332.47
2023-03-02T06:46:55.373Z,101332.31
2023-03-02T06:49:21.926Z,101335.75
2023-03-02T06:51:48.551Z,101331.06
2023-03-02T06:54:15.138Z,101341.50
2023-03-02T06:56:41.713Z,101339.41
2023-03-02T06:59:08.294Z,101346.19
2023-03-02T07:01:36.337Z,101337.13
2023-03-02T07:04:03.683Z,101341.34
2023-03-02T07:06:30.292Z,101353.47
2023-03-02T07:08:56.880Z,101349.53
2023-03-02T07:11:23.919Z,101348.31
2023-03-02T07:13:51.149Z,101349.78
2023-03-02T07:16:17.834Z,101360.09
2023-03-02T07:18:44.389Z,101359.88
2023-03-02T07:21:11.095Z,101366.84
2023-03-02T07:23:37.667Z,101368.28
2023-03-02T07:26:08.522Z,101371.44
2023-03-02T07:28:39.775Z,101370.28
2023-03-02T07:31:06.566Z,101375.25
2023-03-02T07:33:33.229Z,101373.25
2023-03-02T07:35:59.875Z,101382.91
2023-03-02T07:38:26.415Z,101384.34
2023-03-02T07:40:53.131Z,101387.66
2023-03-02T07:43:20.048Z,101397.03
2023-03-02T07:45:46.731Z,101391.47
2023-03-02T07:48:13.331Z,101398.44
2023-03-02T07:50:39.909Z,101396.34
2023-03-02T07:53:06.609Z,101397.97
2023-03-02T07:55:33.343Z,101390.63
2023-03-02T07:57:59.984Z,101398.16
2023-03-02T08:00:27.001Z,101397.88
2023-03-02T08:02:53.663Z,101394.91
2023-03-02T08:05:20.279Z,101389.16
2023-03-02T08:07:47.114Z,101394.22
2023-03-02T08:10:13.689Z,101402.78
2023-03-02T08:12:40.855Z,101394.59
2023-03-02T08:15:07.835Z,101393.22
2023-03-02T08:17:34.429Z,101395.41
2023-03-02T08:20:00.988Z,101395.00
2023-03-02T08:22:27.700Z,101392.22
2023-03-02T08:24:54.296Z,101394.78
2023-03-02T08:27:20.797Z,101385.59
2023-03-02T08:29:47.399Z,101380.81
2023-03-02T08:32:14.206Z,101391.56
2023-03-02T08:34:41.163Z,101382.13
2023-03-02T08:37:07.808Z,101383.66
2023-03-02T08:39:34.365Z,101380.56
2023-03-02T08:42:00.950Z,101380.13
2023-03-02T08:44:27.577Z,101392.34
2023-03-02T08:46:55.081Z,101387.84
2023-03-02T08:49:21.794Z,101389.59
2023-03-02T08:51:53.447Z,101388.28
2023-03-02T08:54:22.577Z,101389.78
2023-03-02T08:56:49.401Z,101395.28
2023-03-02T08:59:16.219Z,101388.19
2023-03-02T09:01:42.835Z,101380.81
2023-03-02T09:04:10.658Z,101383.06
2023-03-02T09:06:40.133Z,101375.34
2023-03-02T09:09:07.748Z,101373.75
2023-03-02T09:11:34.700Z,101386.72
2023-03-02T09:14:01.522Z,101376.53
2023-03-02T09:16:28.222Z,101378.38
2023-03-02T09:18:55.062Z,101372.88
2023-03-02T09:21:21.914Z,101371.59
2023-03-02T09:23:48.441Z,101379.22
2023-03-02T09:26:15.022Z,101373.97
2023-03-02T09:28:41.760Z,101381.56
2023-03-02T09:31:08.755Z,101385.75
2023-03-02T09:33:35.550Z,101386.19
2023-03-02T09:36:07.056Z,101381.25
2023-03-02T09:38:33.654Z,101372.03
2023-03-02T09:41:06.400Z,101383.41
2023-03-02T09:43:45.827Z,101392.38
2023-03-02T09:46:23.843Z,101377.28
2023-03-02T09:49:12.046Z,101372.44
2023-03-02T09:51:57.357Z,101378.03
2023-03-02T09:54:27.168Z,101375.56
2023-03-02T09:56:57.245Z,101383.41
2023-03-02T09:59:26.801Z,101372.25
2023-03-02T10:02:01.305Z,101371.63
2023-03-02T10:04:41.494Z,101372.91
2023-03-02T10:07:14.022Z,101389.44
2023-03-02T10:09:41.030Z,101370.00
2023-03-02T10:12:41.566Z,101385.34
2023-03-02T10:15:15.977Z,101378.22
2023-03-02T10:17:54.307Z,101374.19
2023-03-02T10:20:55.169Z,101402.94
2023-03-02T10:23:40.442Z,101382.16
2023-03-02T10:26:11.040Z,101388.56
2023-03-02T10:28:42.576Z,101388.13
2023-03-02T10:31:13.046Z,101387.06
2023-03-02T10:33:42.009Z,101394.78
2023-03-02T10:36:30.985Z,101393.91
2023-03-02T10:39:00.587Z,101387.28
2023-03-02T10:41:39.991Z,101371.59
2023-03-02T10:44:15.881Z,101364.72
2023-03-02T10:46:45.119Z,101382.22
2023-03-02T10:49:31.400Z,101396.38
2023-03-02T10:52:15.380Z,101394.13
2023-03-02T10:54:42.493Z,101375.25
2023-03-02T10:57:31.849Z,101378.44
2023-03-02T11:00:06.096Z,101395.69
2023-03-02T11:02:34.974Z,101378.09
2023-03-02T11:05:29.561Z,101379.75
2023-03-02T11:07:57.540Z,101365.59
2023-03-02T11:10:39.039Z,101370.84
2023-03-02T11:13:19.841Z,101362.47
2023-03-02T11:15:56.384Z,101370.16
2023-03-02T11:18:40.859Z,101365.34
2023-03-02T11:21:32.152Z,101359.88
2023-03-02T11:24:11.238Z,101346.56
2023-03-02T11:26:46.252Z,101358.25
2023-03-02T11:29:31.168Z,101351.81
2023-03-02T11:32:47.940Z,101349.59
2023-03-02T11:35:34.760Z,101352.59
2023-03-02T11:38:13.735Z,101355.81
2023-03-02T11:40:57.341Z,101346.66
2023-03-02T11:43:24.049Z,101346.44
2023-03-02T11:46:21.691Z,101345.22
2023-03-02T11:48:51.537Z,101358.63
2023-03-02T11:51:27.702Z,101339.47
2023-03-02T11:53:58.295Z,101355.06
2023-03-02T11:56:25.975Z,101354.06
2023-03-02T11:59:02.990Z,101334.09
2023-03-02T12:01:29.998Z,101344.63
2023-03-02T12:04:27.242Z,101349.88
2023-03-02T12:06:54.057Z,101342.03
2023-03-02T12:09:23.734Z,101349.88
2023-03-02T12:12:25.739Z,101351.56
2023-03-02T12:14:52.760Z,101334.22
2023-03-02T12:17:25.188Z,101350.34
2023-03-02T12:19:53.988Z,101342.19
2023-03-02T12:22:29.730Z,101344.66
2023-03-02T12:25:19.514Z,101341.63
2023-03-02T12:27:48.818Z,101341.69
2023-03-02T12:30:15.659Z,101330.13
2023-03-02T12:32:45.373Z,101339.81
2023-03-02T12:35:23.029Z,101322.44
2023-03-02T12:37:53.399Z,101321.81
2023-03-02T12:40:50.876Z,101324.84
2023-03-02T12:43:32.104Z,101324.22
2023-03-02T12:46:33.910Z,101324.22
2023-03-02T12:49:09.363Z,101305.31
2023-03-02T12:51:53.980Z,101309.63
2023-03-02T12:54:25.834Z,101311.31
2023-03-02T12:57:03.948Z,101302.81
2023-03-02T12:59:30.622Z,101305.47
2023-03-02T13:02:15.403Z,101286.16
2023-03-02T13:04:42.333Z,101289.84
2023-03-02T13:07:17.720Z,101296.91
2023-03-02T13:09:55.628Z,101293.25
2023-03-02T13:12:23.309Z,101277.16
2023-03-02T13:14:55.699Z,101291.31
2023-03-02T13:17:31.030Z,101289.38
2023-03-02T13:20:02.038Z,101276.16
2023-03-02T13:22:28.968Z,101281.44
2023-03-02T13:25:00.526Z,101283.03
2023-03-02T13:27:27.192Z,101279.50
2023-03-02T13:29:55.766Z,101272.28
2023-03-02T13:32:27.928Z,101274.75
2023-03-02T13:34:56.750Z,101270.63
2023-03-02T13:37:36.172Z,101270.03
2023-03-02T13:40:05.640Z,101257.09
2023-03-02T13:42:40.630Z,101259.78
2023-03-02T13:45:27.427Z,101263.69
2023-03-02T13:47:55.375Z,101267.34
2023-03-02T13:50:24.366Z,101268.31
2023-03-02T13:52:51.939Z,101256.63
2023-03-02T13:55:20.426Z,101267.94
2023-03-02T13:57:48.640Z,101261.22
2023-03-02T14:00:26.660Z,101246.91
2023-03-02T14:02:53.291Z,101256.91
2023-03-02T14:05:23.033Z,101248.38
2023-03-02T14:07:50.073Z,101245.91
2023-03-02T14:10:18.480Z,101257.63
2023-03-02T14:13:08.798Z,101271.41
2023-03-02T14:15:40.850Z,101252.56
2023-03-02T14:18:33.133Z,101262.91
2023-03-02T14:20:59.645Z,101244.56
2023-03-02T14:23:26.848Z,101267.97
2023-03-02T14:25:54.564Z,101273.59
2023-03-02T14:28:30.613Z,101275.53
2023-03-02T14:30:58.325Z,101274.31
2023-03-02T14:33:25.606Z,101279.44
2023-03-02T14:35:54.481Z,101264.34
2023-03-02T14:38:22.074Z,101265.28
2023-03-02T14:40:48.877Z,101260.91
2023-03-02T14:43:17.773Z,101267.88
2023-03-02T14:45:45.334Z,101255.19
2023-03-02T14:48:12.027Z,101248.97
2023-03-02T14:50:42.136Z,101237.50
2023-03-02T14:53:19.947Z,101265.75
2023-03-02T14:55:46.674Z,101253.06
2023-03-02T14:58:16.192Z,101257.84
2023-03-02T15:00:43.999Z,101262.66
2023-03-02T15:03:22.821Z,101260.00
2023-03-02T15:06:00.796Z,101257.75
2023-03-02T15:08:29.147Z,101260.69
2023-03-02T15:10:55.791Z,101235.91
2023-03-02T15:13:22.351Z,101250.28
2023-03-02T15:15:49.921Z,101255.75
2023-03-02T15:18:19.660Z,101256.09
2023-03-02T15:20:46.743Z,101247.53
2023-03-02T15:23:13.311Z,101238.41
2023-03-02T15:25:39.894Z,101251.94
2023-03-02T15:28:06.480Z,101241.22
2023-03-02T15:30:33.032Z,101250.34
2023-03-02T15:32:59.611Z,101258.16
2023-03-02T15:35:29.618Z,101257.28
2023-03-02T15:37:58.480Z,101258.50
2023-03-02T15:40:25.622Z,101247.88
2023-03-02T15:42:53.086Z,101232.03
2023-03-02T15:45:19.842Z,101242.00
2023-03-02T15:47:46.434Z,101271.34
2023-03-02T15:50:13.305Z,101242.84
2023-03-02T15:52:39.948Z,101231.88
2023-03-02T15:55:06.839Z,101234.38
2023-03-02T15:57:39.928Z,101244.00
2023-03-02T16:00:09.159Z,101228.56
2023-03-02T16:02:35.821Z,101228.22
2023-03-02T16:05:02.542Z,101246.00
2023-03-02T16:07:30.565Z,101245.03
2023-03-02T16:09:57.245Z,101240.41
2023-03-02T16:12:25.249Z,101240.31
2023-03-02T16:14:53.146Z,101247.47
2023-03-02T16:17:19.693Z,101243.84
2023-03-02T16:19:46.288Z,101242.84
2023-03-02T16:22:12.872Z,101244.78
2023-03-02T16:24:40.926Z,101247.63
2023-03-02T16:27:08.368Z,101230.88
2023-03-02T16:29:34.949Z,101237.34
2023-03-02T16:32:01.635Z,101237.34
2023-03-02T16:34:28.419Z,101232.31
2023-03-02T16:36:55.016Z,101247.66
2023-03-02T16:39:21.698Z,101238.88
2023-03-02T16:41:48.467Z,101238.00
2023-03-02T16:44:16.116Z,101238.97
2023-03-02T16:46:43.689Z,101237.16
2023-03-02T16:49:14.058Z,101223.97
2023-03-02T16:51:41.776Z,101233.22
2023-03-02T16:54:09.945Z,101228.13
2023-03-02T16:56:36.658Z,101226.66
2023-03-02T16:59:03.402Z,101216.16
2023-03-02T17:01:30.145Z,101212.97
2023-03-02T17:03:56.761Z,101223.88
2023-03-02T17:06:23.993Z,101219.81
2023-03-02T17:08:51.328Z,101213.09
2023-03-02T17:11:18.532Z,101228.31
2023-03-02T17:13:45.174Z,101235.63
2023-03-02T17:16:12.654Z,101225.00
2023-03-02T17:18:40.948Z,101234.97
2023-03-02T17:21:07.516Z,101243.97
2023-03-02T17:23:34.136Z,101247.72
2023-03-02T17:26:00.786Z,101247.81
2023-03-02T17:28:27.582Z,101243.34
2023-03-02T17:30:54.425Z,101249.53
2023-03-02T17:33:21.239Z,101246.75
2023-03-02T17:35:48.102Z,101239.34
2023-03-02T17:38:15.361Z,101238.50
2023-03-02T17:40:42.740Z,101249.22
2023-03-02T17:43:10.595Z,101243.75
2023-03-02T17:45:37.244Z,101243.53
2023-03-02T17:48:04.152Z,101247.09
2023-03-02T17:50:33.601Z,101253.50
2023-03-02T17:53:00.176Z,101256.06
2023-03-02T17:55:27.066Z,101255.22
2023-03-02T17:57:53.738Z,101257.16
2023-03-02T18:00:22.093Z,101258.22
2023-03-02T18:02:49.055Z,101253.72
2023-03-02T18:05:16.265Z,101260.78
2023-03-02T18:07:42.777Z,101267.88
2023-03-02T18:10:09.884Z,101252.75
2023-03-02T18:12:36.580Z,101249.31
2023-03-02T18:15:03.615Z,101240.53
2023-03-02T18:17:30.232Z,101258.44
2023-03-02T18:19:56.816Z,101255.66
2023-03-02T18:22:23.397Z,101260.16
2023-03-02T18:24:51.898Z,101260.16
2023-03-02T18:27:18.903Z,101267.44
2023-03-02T18:29:45.458Z,101271.94
2023-03-02T18:32:12.519Z,101276.34
2023-03-02T18:34:39.420Z,101279.88
2023-03-02T18:37:05.956Z,101282.63
2023-03-02T18:39:32.566Z,101282.78
2023-03-02T18:41:59.531Z,101282.03
2023-03-02T18:44:28.118Z,101284.81
2023-03-02T18:46:55.290Z,101285.22
2023-03-02T18:49:22.055Z,101294.00
2023-03-02T18:51:48.715Z,101302.38
2023-03-02T18:54:15.392Z,101299.78
2023-03-02T18:56:42.027Z,101293.25
2023-03-02T18:59:09.605Z,101286.81
2023-03-02T19:01:36.212Z,101293.78
2023-03-02T19:04:03.670Z,101296.59
2023-03-02T19:06:30.726Z,101301.06
2023-03-02T19:08:58.106Z,101307.31
2023-03-02T19:11:24.730Z,101311.47
2023-03-02T19:13:51.292Z,101303.44
2023-03-02T19:16:18.617Z,101302.16
2023-03-02T19:18:45.290Z,101311.59
2023-03-02T19:21:11.822Z,101307.72
2023-03-02T19:23:38.503Z,101308.38
2023-03-02T19:26:05.281Z,101309.00
2023-03-02T19:28:35.016Z,101318.66
2023-03-02T19:31:06.795Z,101325.63
2023-03-02T19:33:33.547Z,101314.81
2023-03-02T19:36:00.260Z,101309.97
2023-03-02T19:38:29.248Z,101315.00
2023-03-02T19:41:00.218Z,101304.94
2023-03-02T19:43:28.304Z,101318.84
2023-03-02T19:45:55.247Z,101308.78
2023-03-02T19:48:23.973Z,101318.50
2023-03-02T19:50:53.702Z,101314.78
2023-03-02T19:53:30.498Z,101316.47
2023-03-02T19:56:07.286Z,101311.22
2023-03-02T19:58:34.985Z,101320.34
2023-03-02T20:01:03.836Z,101328.28
2023-03-02T20:03:30.863Z,101329.97
2023-03-02T20:05:58.952Z,101324.84
2023-03-02T20:08:25.578Z,101327.78
2023-03-02T20:10:52.245Z,101327.97
2023-03-02T20:13:18.918Z,101330.97
2023-03-02T20:15:47.217Z,101337.63
2023-03-02T20:18:16.725Z,101339.22
2023-03-02T20:20:45.196Z,101341.06
2023-03-02T20:23:12.899Z,101342.44
2023-03-02T20:25:39.879Z,101337.50
2023-03-02T20:28:07.108Z,101341.22
2023-03-02T20:30:39.900Z,101346.59
2023-03-02T20:33:08.017Z,101349.28
2023-03-02T20:35:39.018Z,101344.56
2023-03-02T20:38:06.622Z,101348.84
2023-03-02T20:40:33.943Z,101357.00
2023-03-02T20:43:00.749Z,101378.44
2023-03-02T20:45:27.873Z,101360.00
2023-03-02T20:47:55.409Z,101357.13
2023-03-02T20:50:24.787Z,101372.22
2023-03-02T20:52:51.407Z,101373.84
2023-03-02T20:55:18.465Z,101371.94
2023-03-02T20:57:45.219Z,101396.66
2023-03-02T21:00:20.883Z,101368.59
2023-03-02T21:02:48.318Z,101358.63
2023-03-02T21:05:16.240Z,101373.84
2023-03-02T21:07:43.416Z,101383.28
2023-03-02T21:10:15.226Z,101367.84
2023-03-02T21:12:46.025Z,101392.38
2023-03-02T21:15:12.952Z,101370.75
2023-03-02T21:17:39.476Z,101379.75
2023-03-02T21:20:06.804Z,101376.44
2023-03-02T21:22:34.402Z,101373.00
2023-03-02T21:25:03.162Z,101367.00
2023-03-02T21:27:29.728Z,101370.00
2023-03-02T21:29:56.540Z,101368.59
2023-03-02T21:32:23.678Z,101367.75
2023-03-02T21:34:50.259Z,101375.78
2023-03-02T21:37:16.874Z,101369.44
2023-03-02T21:39:43.482Z,101369.44
2023-03-02T21:42:11.100Z,101373.84
2023-03-02T21:44:38.069Z,101368.59
2023-03-02T21:47:06.939Z,101365.91
2023-03-02T21:49:34.108Z,101369.44
2023-03-02T21:52:00.776Z,101363.25
2023-03-02T21:54:28.190Z,101362.81
2023-03-02T21:56:54.906Z,101363.00
2023-03-02T21:59:21.471Z,101358.53
2023-03-02T22:01:48.163Z,101364.63
2023-03-02T22:04:14.778Z,101362.59
2023-03-02T22:06:41.360Z,101363.47
2023-03-02T22:09:11.436Z,101363.47
2023-03-02T22:11:38.530Z,101363.47
2023-03-02T22:14:13.887Z,101355.63
2023-03-02T22:16:42.639Z,101349.50
2023-03-02T22:19:27.165Z,101354.34
2023-03-02T22:22:00.116Z,101361.50
2023-03-02T22:24:29.019Z,101352.84
2023-03-02T22:26:58.676Z,101368.25
2023-03-02T22:29:26.446Z,101370.94
2023-03-02T22:31:55.656Z,101373.59
2023-03-02T22:34:27.914Z,101374.47
2023-03-02T22:36:59.108Z,101373.09
2023-03-02T22:39:33.501Z,101375.84
2023-03-02T22:42:16.054Z,101376.19
2023-03-02T22:44:43.304Z,101367.56
2023-03-02T22:47:15.545Z,101356.97
2023-03-02T22:49:43.622Z,101349.81
2023-03-02T22:52:19.528Z,101361.47
2023-03-02T22:54:46.166Z,101361.59
2023-03-02T22:57:27.930Z,101362.84
2023-03-02T23:00:11.541Z,101352.47
2023-03-02T23:02:42.418Z,101369.78
2023-03-02T23:05:29.166Z,101356.81
2023-03-02T23:08:23.065Z,101359.81
2023-03-02T23:10:52.034Z,101356.16
2023-03-02T23:13:22.061Z,101373.09
2023-03-02T23:15:50.498Z,101366.84
2023-03-02T23:18:23.861Z,101369.66
2023-03-02T23:20:51.364Z,101364.50
2023-03-02T23:23:19.726Z,101368.91
2023-03-02T23:25:46.599Z,101366.22
2023-03-02T23:28:13.221Z,101368.69
2023-03-02T23:30:39.947Z,101362.91
